Time;durP1;ratioP1;P1;durP2;ratioP2;P2;SDS_P1;SDS_P2;PMS_P1;PMS_P2;Temp;Humidity;BMP_temperature;BMP_pressure;BME280_temperature;BME280_humidity;BME280_pressure;Samples;Min_cycle;Max_cycle;Signal;HPM_P1;HPM_P2
2022/03/13 00:01:21;;;;;;;;;;;;;;;10.08;100.00;101402.94;5250141;28;19912;-56
2022/03/13 00:03:52;;;;;;;;;;;;;;;10.05;100.00;101409.63;5250006;28;19912;-59
2022/03/13 00:06:35;;;;;;;;;;;;;;;10.01;100.00;101408.44;5250056;28;20299;-58
2022/03/13 00:12:14;;;;;;;;;;;;;;;9.86;100.00;101402.72;5267823;28;19962;-59
2022/03/13 00:14:46;;;;;;;;;;;;;;;9.81;100.00;101398.06;5249351;28;20406;-58
2022/03/13 00:17:17;;;;;;;;;;;;;;;9.74;100.00;101391.16;5250223;28;19919;-59
2022/03/13 00:19:49;;;;;;;;;;;;;;;9.70;100.00;101396.19;5251095;28;20383;-62
2022/03/13 00:22:20;;;;;;;;;;;;;;;9.67;100.00;101388.59;5250734;28;20372;-59
2022/03/13 00:24:50;;;;;;;;;;;;;;;9.63;100.00;101390.13;5250660;28;19912;-60
2022/03/13 00:27:21;;;;;;;;;;;;;;;9.61;100.00;101381.44;5250477;28;19923;-59
2022/03/13 00:29:52;;;;;;;;;;;;;;;9.62;100.00;101379.56;5250766;28;19927;-59
2022/03/13 00:32:22;;;;;;;;;;;;;;;9.57;100.00;101379.44;5250523;28;19916;-59
2022/03/13 00:34:52;;;;;;;;;;;;;;;9.50;100.00;101371.50;5250405;28;20395;-59
2022/03/13 00:37:23;;;;;;;;;;;;;;;9.43;100.00;101371.63;5250749;28;19912;-60
2022/03/13 00:39:54;;;;;;;;;;;;;;;9.35;100.00;101369.28;5250563;28;19919;-59
2022/03/13 00:42:25;;;;;;;;;;;;;;;9.32;100.00;101369.75;5249700;28;19932;-59
2022/03/13 00:44:55;;;;;;;;;;;;;;;9.29;100.00;101374.78;5250309;28;19918;-59
2022/03/13 00:47:26;;;;;;;;;;;;;;;9.25;100.00;101366.34;5250253;28;19926;-59
2022/03/13 00:49:56;;;;;;;;;;;;;;;9.21;100.00;101367.88;5250261;28;19919;-60
2022/03/13 00:52:26;;;;;;;;;;;;;;;9.16;100.00;101359.69;5250395;28;19916;-59
2022/03/13 00:54:56;;;;;;;;;;;;;;;8.66;100.00;101292.75;5250198;28;20015;-59
2022/03/13 00:57:29;;;;;;;;;;;;;;;9.09;100.00;101367.06;5250272;28;20010;-57
2022/03/13 00:59:59;;;;;;;;;;;;;;;9.03;100.00;101367.97;5250260;28;19912;-58
2022/03/13 01:02:29;;;;;;;;;;;;;;;9.00;100.00;101358.50;5250189;28;19984;-57
2022/03/13 01:05:00;;;;;;;;;;;;;;;8.99;100.00;101345.25;5249838;28;19916;-59
2022/03/13 01:07:30;;;;;;;;;;;;;;;8.97;100.00;101341.97;5250034;28;20407;-59
2022/03/13 01:10:00;;;;;;;;;;;;;;;8.93;100.00;101341.63;5250206;28;19912;-59
2022/03/13 01:12:31;;;;;;;;;;;;;;;8.91;100.00;101346.44;5250242;28;20111;-60
2022/03/13 01:15:01;;;;;;;;;;;;;;;8.95;100.00;101339.50;5250305;28;19974;-60
2022/03/13 01:17:32;;;;;;;;;;;;;;;8.96;100.00;101325.00;5250272;28;19912;-59
2022/03/13 01:20:03;;;;;;;;;;;;;;;8.99;100.00;101331.78;5250048;28;19916;-60
2022/03/13 01:22:34;;;;;;;;;;;;;;;9.01;100.00;101329.69;5250293;28;19912;-60
2022/03/13 01:25:04;;;;;;;;;;;;;;;9.00;100.00;101325.34;5250132;28;19923;-60
2022/03/13 01:27:35;;;;;;;;;;;;;;;9.01;100.00;101329.69;5249858;28;19917;-59
2022/03/13 01:30:05;;;;;;;;;;;;;;;9.07;100.00;101326.06;5250006;28;19935;-59
2022/03/13 01:32:36;;;;;;;;;;;;;;;9.10;100.00;101325.59;5250379;28;19912;-60
2022/03/13 01:35:06;;;;;;;;;;;;;;;9.09;100.00;101329.34;5249944;28;19913;-59
2022/03/13 01:37:40;;;;;;;;;;;;;;;9.09;100.00;101329.34;5249998;28;19912;-60
2022/03/13 01:40:12;;;;;;;;;;;;;;;9.08;100.00;101320.44;5250171;28;19955;-59
2022/03/13 01:42:44;;;;;;;;;;;;;;;9.09;100.00;101329.34;5249998;28;19928;-60
2022/03/13 01:45:16;;;;;;;;;;;;;;;9.07;100.00;101321.47;5249783;28;19946;-57
2022/03/13 01:47:47;;;;;;;;;;;;;;;9.07;100.00;101315.28;5249750;28;20295;-59
2022/03/13 01:50:17;;;;;;;;;;;;;;;9.06;100.00;101319.03;5250057;28;19912;-60
2022/03/13 01:52:48;;;;;;;;;;;;;;;9.05;100.00;101312.00;5251086;28;19912;-59
2022/03/13 01:55:18;;;;;;;;;;;;;;;9.08;100.00;101315.03;5253522;28;19987;-59
2022/03/13 01:57:49;;;;;;;;;;;;;;;9.08;100.00;101309.66;5272064;28;19912;-59
2022/03/13 02:00:20;;;;;;;;;;;;;;;9.06;100.00;101310.94;5253447;28;19912;-60
2022/03/13 02:02:51;;;;;;;;;;;;;;;9.04;100.00;101316.56;5253688;28;19918;-59
2022/03/13 02:05:29;;;;;;;;;;;;;;;9.03;100.00;101311.41;5253451;28;20359;-59
2022/03/13 02:08:04;;;;;;;;;;;;;;;9.03;100.00;101314.91;5253415;28;19932;-59
2022/03/13 02:10:35;;;;;;;;;;;;;;;9.03;100.00;101314.09;5253330;28;19912;-58
2022/03/13 02:13:06;;;;;;;;;;;;;;;9.03;100.00;101314.09;5253100;28;19912;-58
2022/03/13 02:15:37;;;;;;;;;;;;;;;9.02;100.00;101315.16;5253101;28;20418;-56
2022/03/13 02:18:07;;;;;;;;;;;;;;;9.00;100.00;101325.34;5253211;28;19955;-59
2022/03/13 02:20:42;;;;;;;;;;;;;;;8.96;100.00;101316.09;5271008;28;19978;-58
2022/03/13 02:23:15;;;;;;;;;;;;;;;8.93;100.00;101319.28;5253088;28;19916;-58
2022/03/13 02:25:53;;;;;;;;;;;;;;;8.97;100.00;101309.66;5253058;28;19919;-58
2022/03/13 02:28:24;;;;;;;;;;;;;;;9.02;100.00;101307.06;5252744;28;19916;-60
2022/03/13 02:31:00;;;;;;;;;;;;;;;9.07;100.00;101309.88;5252998;28;19915;-57
2022/03/13 02:33:31;;;;;;;;;;;;;;;9.05;100.00;101310.13;5252672;28;19988;-59
2022/03/13 02:36:04;;;;;;;;;;;;;;;9.04;100.00;101304.97;5252869;28;19916;-58
2022/03/13 02:38:34;;;;;;;;;;;;;;;9.03;100.00;101298.75;5252596;28;19961;-59
2022/03/13 02:41:05;;;;;;;;;;;;;;;9.03;100.00;101309.53;5270917;28;20372;-59
2022/03/13 02:43:35;;;;;;;;;;;;;;;9.03;100.00;101314.09;5252804;28;19912;-60
2022/03/13 02:46:14;;;;;;;;;;;;;;;8.99;100.00;101307.53;5270856;28;19912;-63
2022/03/13 02:48:44;;;;;;;;;;;;;;;8.95;100.00;101295.63;5252588;28;20061;-59
2022/03/13 02:51:14;;;;;;;;;;;;;;;8.90;100.00;101299.00;5252540;28;20011;-59
2022/03/13 02:53:45;;;;;;;;;;;;;;;8.83;100.00;101287.53;5252182;28;19912;-60
2022/03/13 02:56:16;;;;;;;;;;;;;;;8.77;100.00;101283.88;5252016;28;20314;-60
2022/03/13 02:58:46;;;;;;;;;;;;;;;8.73;100.00;101288.09;5252264;28;20275;-60
2022/03/13 03:01:18;;;;;;;;;;;;;;;8.67;100.00;101285.50;5252328;28;19912;-61
2022/03/13 03:03:49;;;;;;;;;;;;;;;8.63;100.00;101276.28;5251030;28;19912;-61
2022/03/13 03:06:19;;;;;;;;;;;;;;;8.61;100.00;101278.38;5251984;28;19912;-60
2022/03/13 03:08:51;;;;;;;;;;;;;;;8.60;100.00;101277.56;5252232;28;20395;-62
2022/03/13 03:11:21;;;;;;;;;;;;;;;8.59;100.00;101275.94;5270158;28;20245;-60
2022/03/13 03:13:51;;;;;;;;;;;;;;;8.58;100.00;101268.09;5251714;28;19916;-62
2022/03/13 03:16:22;;;;;;;;;;;;;;;8.58;100.00;101274.28;5252066;28;19946;-62
2022/03/13 03:18:52;;;;;;;;;;;;;;;8.57;100.00;101269.97;5251748;28;19912;-62
2022/03/13 03:21:22;;;;;;;;;;;;;;;8.55;100.00;101266.69;5251742;28;20394;-64
2022/03/13 03:23:53;;;;;;;;;;;;;;;8.54;100.00;101265.03;5251351;28;19934;-59
2022/03/13 03:26:23;;;;;;;;;;;;;;;8.53;100.00;101266.09;5251500;28;20002;-59
2022/03/13 03:28:54;;;;;;;;;;;;;;;8.55;100.00;101258.59;5251547;28;19934;-60
2022/03/13 03:31:24;;;;;;;;;;;;;;;8.53;100.00;101260.69;5251256;28;20387;-60
2022/03/13 03:33:54;;;;;;;;;;;;;;;8.55;100.00;101263.16;5251182;28;19955;-62
2022/03/13 03:36:24;;;;;;;;;;;;;;;8.54;100.00;101258.81;5251994;28;19958;-61
2022/03/13 03:38:55;;;;;;;;;;;;;;;8.53;100.00;101258.00;5251175;28;20376;-62
2022/03/13 03:41:25;;;;;;;;;;;;;;;8.51;100.00;101260.13;5251491;28;19912;-60
2022/03/13 03:43:56;;;;;;;;;;;;;;;8.51;100.00;101256.59;5250979;28;19934;-62
2022/03/13 03:46:26;;;;;;;;;;;;;;;8.51;100.00;101268.19;5250958;28;19913;-60
2022/03/13 03:48:56;;;;;;;;;;;;;;;8.51;100.00;101272.75;5251056;28;20356;-60
2022/03/13 03:51:27;;;;;;;;;;;;;;;8.51;100.00;101262.81;5251158;28;20368;-60
2022/03/13 03:53:57;;;;;;;;;;;;;;;8.51;100.00;101270.06;5250823;28;19919;-59
2022/03/13 03:56:28;;;;;;;;;;;;;;;8.48;100.00;101271.34;5251206;28;19912;-60
2022/03/13 03:58:58;;;;;;;;;;;;;;;8.47;100.00;101267.00;5251124;28;20391;-61
2022/03/13 04:01:36;;;;;;;;;;;;;;;8.44;100.00;101272.84;5250958;28;19920;-61
2022/03/13 04:04:07;;;;;;;;;;;;;;;8.41;100.00;101274.13;5268712;28;19918;-61
2022/03/13 04:06:38;;;;;;;;;;;;;;;8.39;100.00;101275.41;5250934;28;19918;-60
2022/03/13 04:09:10;;;;;;;;;;;;;;;8.38;100.00;101273.75;5251306;28;20359;-61
2022/03/13 04:11:40;;;;;;;;;;;;;;;8.36;100.00;101271.34;5251147;28;20414;-59
2022/03/13 04:14:11;;;;;;;;;;;;;;;8.37;100.00;101269.47;5250865;28;19912;-62
2022/03/13 04:16:41;;;;;;;;;;;;;;;8.34;100.00;101265.38;5250759;28;19965;-61
2022/03/13 04:19:11;;;;;;;;;;;;;;;8.34;100.00;101270.75;5250602;28;19969;-60
2022/03/13 04:21:42;;;;;;;;;;;;;;;8.33;100.00;101265.59;5250840;28;19946;-60
2022/03/13 04:24:12;;;;;;;;;;;;;;;8.31;100.00;101265.78;5250278;28;19912;-60
2022/03/13 04:26:42;;;;;;;;;;;;;;;8.30;100.00;101266.84;5250517;28;19955;-62
2022/03/13 04:29:13;;;;;;;;;;;;;;;8.31;100.00;101264.97;5250345;28;19912;-60
2022/03/13 04:31:44;;;;;;;;;;;;;;;8.30;100.00;101256.06;5250418;28;19912;-62
2022/03/13 04:34:15;;;;;;;;;;;;;;;8.29;100.00;101265.19;5250069;28;20018;-60
2022/03/13 04:36:46;;;;;;;;;;;;;;;8.27;100.00;101261.09;5250554;28;19924;-62
2022/03/13 04:39:17;;;;;;;;;;;;;;;8.26;100.00;101270.22;5250390;28;19961;-60
2022/03/13 04:41:47;;;;;;;;;;;;;;;8.22;100.00;101266.34;5250417;28;20007;-61
2022/03/13 04:44:19;;;;;;;;;;;;;;;8.22;100.00;101269.84;5250269;28;20003;-60
2022/03/13 04:46:49;;;;;;;;;;;;;;;8.21;100.00;101267.41;5261379;22;19916;-82
2022/03/13 04:49:19;;;;;;;;;;;;;;;8.18;100.00;101265.97;5212869;28;19955;-81
2022/03/13 04:51:49;;;;;;;;;;;;;;;8.15;100.00;101263.75;5211456;28;19920;-82
2022/03/13 04:54:20;;;;;;;;;;;;;;;8.17;100.00;101263.53;5195097;28;19913;-82
2022/03/13 04:56:50;;;;;;;;;;;;;;;8.18;100.00;101267.84;5195539;28;19914;-82
2022/03/13 04:59:20;;;;;;;;;;;;;;;8.18;100.00;101254.41;5189809;28;19961;-79
2022/03/13 05:01:52;;;;;;;;;;;;;;;8.20;100.00;101263.06;5206929;28;19917;-79
2022/03/13 05:04:22;;;;;;;;;;;;;;;8.20;100.00;101266.56;5207946;28;19915;-80
2022/03/13 05:06:53;;;;;;;;;;;;;;;8.18;100.00;101251.72;5209160;28;20442;-81
2022/03/13 05:09:23;;;;;;;;;;;;;;;8.14;100.00;101262.94;5208571;28;19917;-80
2022/03/13 05:11:54;;;;;;;;;;;;;;;8.12;100.00;101248.06;5208181;28;19957;-80
2022/03/13 05:14:24;;;;;;;;;;;;;;;8.09;100.00;101248.53;5207524;28;19913;-81
2022/03/13 05:16:54;;;;;;;;;;;;;;;8.07;100.00;101240.72;5208822;28;19917;-81
2022/03/13 05:19:24;;;;;;;;;;;;;;;8.05;100.00;101253.56;5212998;28;19913;-80
2022/03/13 05:21:55;;;;;;;;;;;;;;;8.03;100.00;101247.59;5214619;28;19917;-79
2022/03/13 05:24:25;;;;;;;;;;;;;;;8.02;100.00;101253.19;5214707;28;19920;-79
2022/03/13 05:26:55;;;;;;;;;;;;;;;8.02;100.00;101247.81;5216761;28;19913;-79
2022/03/13 05:29:25;;;;;;;;;;;;;;;7.99;100.00;101235.66;5221568;28;20012;-79
2022/03/13 05:31:56;;;;;;;;;;;;;;;7.96;100.00;101236.09;5221161;28;19959;-80
2022/03/13 05:34:26;;;;;;;;;;;;;;;7.94;100.00;101237.38;5211100;28;19968;-79
2022/03/13 05:36:56;;;;;;;;;;;;;;;7.92;100.00;101240.31;5209563;28;19960;-79
2022/03/13 05:39:26;;;;;;;;;;;;;;;7.92;100.00;101226.03;5211662;28;20367;-81
2022/03/13 05:41:58;;;;;;;;;;;;;;;7.92;100.00;101234.91;5197978;28;19936;-81
2022/03/13 05:44:30;;;;;;;;;;;;;;;7.91;100.00;101222.53;5197395;28;19913;-81
2022/03/13 05:47:00;;;;;;;;;;;;;;;7.91;100.00;101219.84;5215297;28;19929;-80
2022/03/13 05:49:30;;;;;;;;;;;;;;;7.91;100.00;101219.84;5197408;28;20006;-80
2022/03/13 05:52:00;;;;;;;;;;;;;;;7.91;100.00;101214.47;5214792;28;19920;-81
2022/03/13 05:54:30;;;;;;;;;;;;;;;7.91;100.00;101217.16;5197544;28;19917;-81
2022/03/13 05:57:04;;;;;;;;;;;;;;;7.93;100.00;101212.38;5215772;28;20333;-80
2022/03/13 05:59:35;;;;;;;;;;;;;;;7.95;100.00;101221.03;5215051;28;19913;-81
2022/03/13 06:02:06;;;;;;;;;;;;;;;7.98;100.00;101225.13;5215195;28;20345;-81
2022/03/13 06:04:37;;;;;;;;;;;;;;;7.95;100.00;101217.50;5214672;28;19935;-81
2022/03/13 06:07:08;;;;;;;;;;;;;;;7.90;100.00;101223.56;5197754;28;19913;-81
2022/03/13 06:09:38;;;;;;;;;;;;;;;7.84;100.00;101223.66;5199860;28;19917;-81
2022/03/13 06:12:09;;;;;;;;;;;;;;;7.78;100.00;101223.56;5201655;28;19920;-81
2022/03/13 06:14:39;;;;;;;;;;;;;;;7.75;100.00;101215.13;5216475;28;20003;-81
2022/03/13 06:17:10;;;;;;;;;;;;;;;7.38;100.00;101182.94;5216242;28;19917;-80
2022/03/13 06:19:42;;;;;;;;;;;;;;;7.70;100.00;101228.41;5199007;28;20358;-81
2022/03/13 06:22:13;;;;;;;;;;;;;;;7.68;100.00;101231.34;5198691;28;19939;-81
2022/03/13 06:24:43;;;;;;;;;;;;;;;7.65;100.00;101226.41;5198039;28;19913;-81
2022/03/13 06:27:13;;;;;;;;;;;;;;;7.68;100.00;101225.13;5203020;28;19920;-81
2022/03/13 06:29:44;;;;;;;;;;;;;;;7.65;100.00;101223.72;5220441;28;20268;-82
2022/03/13 06:32:15;;;;;;;;;;;;;;;7.68;100.00;101238.56;5202712;28;19920;-81
2022/03/13 06:34:45;;;;;;;;;;;;;;;7.66;100.00;101232.59;5219395;28;19920;-82
2022/03/13 06:37:15;;;;;;;;;;;;;;;7.64;100.00;101234.69;5201532;28;19920;-82
2022/03/13 06:39:45;;;;;;;;;;;;;;;7.60;100.00;101238.88;5217190;28;19960;-81
2022/03/13 06:42:18;;;;;;;;;;;;;;;7.56;100.00;101237.69;5218360;28;20257;-82
2022/03/13 06:44:49;;;;;;;;;;;;;;;7.56;100.00;101248.44;5203144;28;19912;-83
2022/03/13 06:47:19;;;;;;;;;;;;;;;7.56;100.00;101235.00;5217814;28;19925;-82
2022/03/13 06:49:49;;;;;;;;;;;;;;;7.61;100.00;101240.53;5199829;28;19917;-81
2022/03/13 06:52:20;;;;;;;;;;;;;;;7.65;100.00;101233.66;5216793;28;19914;-82
2022/03/13 06:54:50;;;;;;;;;;;;;;;7.72;100.00;101239.78;5221325;28;19943;-83
2022/03/13 06:57:20;;;;;;;;;;;;;;;7.84;100.00;101246.00;5214296;28;19959;-83
2022/03/13 06:59:51;;;;;;;;;;;;;;;7.95;100.00;101239.84;5206124;28;20078;-82
2022/03/13 07:02:21;;;;;;;;;;;;;;;8.04;100.00;101240.34;5217543;28;19934;-83
2022/03/13 07:04:51;;;;;;;;;;;;;;;8.14;100.00;101241.41;5217691;28;19919;-83
2022/03/13 07:07:22;;;;;;;;;;;;;;;8.27;100.00;101243.09;5217411;28;19921;-83
2022/03/13 07:09:52;;;;;;;;;;;;;;;8.38;100.00;101236.91;5219425;28;19912;-82
2022/03/13 07:12:23;;;;;;;;;;;;;;;8.49;100.00;101240.69;5219094;28;19970;-83
2022/03/13 07:14:56;;;;;;;;;;;;;;;8.53;100.00;101228.41;5237098;28;20294;-83
2022/03/13 07:17:27;;;;;;;;;;;;;;;8.56;100.00;101238.69;5239601;28;19912;-80
2022/03/13 07:19:57;;;;;;;;;;;;;;;8.61;100.00;101233.44;5237792;28;19919;-82
2022/03/13 07:22:27;;;;;;;;;;;;;;;8.58;100.00;101241.97;5218027;28;20000;-81
2022/03/13 07:24:57;;;;;;;;;;;;;;;8.53;100.00;101239.16;5216356;28;19913;-82
2022/03/13 07:27:28;;;;;;;;;;;;;;;8.51;100.00;101240.44;5233797;28;20374;-82
2022/03/13 07:29:58;;;;;;;;;;;;;;;8.47;100.00;101232.00;5234058;28;19916;-83
2022/03/13 07:32:28;;;;;;;;;;;;;;;8.49;100.00;101246.06;5235316;28;19912;-83
2022/03/13 07:34:59;;;;;;;;;;;;;;;8.49;100.00;101248.75;5212624;28;19956;-79
2022/03/13 07:37:29;;;;;;;;;;;;;;;8.48;100.00;101244.44;5211710;28;19956;-79
2022/03/13 07:39:59;;;;;;;;;;;;;;;8.50;100.00;101242.31;5212693;28;20319;-80
2022/03/13 07:42:30;;;;;;;;;;;;;;;8.55;100.00;101241.63;5231481;28;19916;-80
2022/03/13 07:45:01;;;;;;;;;;;;;;;8.59;100.00;101240.94;5212611;28;19913;-81
2022/03/13 07:47:32;;;;;;;;;;;;;;;8.62;100.00;101231.56;5208372;28;19967;-81
2022/03/13 07:50:02;;;;;;;;;;;;;;;8.66;100.00;101238.91;5208088;28;19913;-81
2022/03/13 07:52:33;;;;;;;;;;;;;;;8.71;100.00;101233.66;5209823;28;19917;-80
2022/03/13 07:55:04;;;;;;;;;;;;;;;8.77;100.00;101232.72;5207537;28;19999;-81
2022/03/13 07:57:35;;;;;;;;;;;;;;;8.82;100.00;101231.22;5209345;28;20271;-80
2022/03/13 08:00:05;;;;;;;;;;;;;;;8.92;100.00;101237.66;5209807;28;19920;-82
2022/03/13 08:02:36;;;;;;;;;;;;;;;8.97;100.00;101234.22;5208260;28;19971;-80
2022/03/13 08:05:06;;;;;;;;;;;;;;;9.00;100.00;101239.16;5207083;28;19978;-81
2022/03/13 08:07:36;;;;;;;;;;;;;;;9.04;100.00;101232.22;5209176;28;19917;-81
2022/03/13 08:10:08;;;;;;;;;;;;;;;9.08;100.00;101231.53;5209431;28;19913;-80
2022/03/13 08:12:39;;;;;;;;;;;;;;;9.14;100.00;101232.47;5209110;28;20380;-81
2022/03/13 08:15:09;;;;;;;;;;;;;;;9.22;100.00;101232.09;5207324;28;19917;-80
2022/03/13 08:17:41;;;;;;;;;;;;;;;9.26;100.00;101238.63;5207294;28;19952;-82
2022/03/13 08:20:11;;;;;;;;;;;;;;;9.32;100.00;101232.28;5209204;28;19921;-81
2022/03/13 08:22:41;;;;;;;;;;;;;;;9.41;100.00;101235.44;5207767;28;19933;-81
2022/03/13 08:25:16;;;;;;;;;;;;;;;9.48;100.00;101231.56;5208484;28;20383;-81
2022/03/13 08:27:46;;;;;;;;;;;;;;;9.57;100.00;101231.97;5217938;28;19970;-80
2022/03/13 08:30:17;;;;;;;;;;;;;;;9.64;100.00;101240.75;5210667;28;19913;-81
2022/03/13 08:32:47;;;;;;;;;;;;;;;9.70;100.00;101231.69;5229256;28;19913;-80
2022/03/13 08:35:17;;;;;;;;;;;;;;;9.76;100.00;101238.00;5211433;28;19913;-81
2022/03/13 08:37:48;;;;;;;;;;;;;;;9.86;100.00;101237.38;5211669;28;20004;-80
2022/03/13 08:40:19;;;;;;;;;;;;;;;9.94;100.00;101236.97;5211255;28;20416;-80
2022/03/13 08:42:49;;;;;;;;;;;;;;;9.99;100.00;101243.28;5211360;28;19917;-81
2022/03/13 08:45:19;;;;;;;;;;;;;;;10.05;100.00;101239.63;5228758;28;19917;-82
2022/03/13 08:47:49;;;;;;;;;;;;;;;10.14;100.00;101237.31;5215269;28;20364;-82
2022/03/13 08:50:20;;;;;;;;;;;;;;;10.22;100.00;101236.16;5233983;28;19916;-84
2022/03/13 08:52:50;;;;;;;;;;;;;;;10.29;100.00;101243.03;5215036;28;19916;-83
2022/03/13 08:55:22;;;;;;;;;;;;;;;10.41;100.00;101234.84;5231407;28;20323;-82
2022/03/13 08:57:52;;;;;;;;;;;;;;;10.53;100.00;101227.47;5214869;28;19952;-82
2022/03/13 09:00:24;;;;;;;;;;;;;;;10.65;100.00;101230.91;5232207;28;20290;-79
2022/03/13 09:02:54;;;;;;;;;;;;;;;10.75;100.00;101233.75;5216890;28;19959;-80
2022/03/13 09:05:24;;;;;;;;;;;;;;;10.92;100.00;101228.34;5219030;28;19912;-80
2022/03/13 09:07:55;;;;;;;;;;;;;;;11.02;100.00;101231.16;5219874;28;19924;-82
2022/03/13 09:10:25;;;;;;;;;;;;;;;11.06;100.00;101223.38;5219028;28;20334;-82
2022/03/13 09:12:55;;;;;;;;;;;;;;;11.14;100.00;101212.13;5237523;28;20311;-83
2022/03/13 09:15:26;;;;;;;;;;;;;;;11.32;100.00;101214.50;5236709;28;19920;-83
2022/03/13 09:17:56;;;;;;;;;;;;;;;11.57;100.00;101219.38;5237474;28;19912;-83
2022/03/13 09:20:27;;;;;;;;;;;;;;;11.82;100.00;101211.59;5237451;28;19912;-83
2022/03/13 09:22:57;;;;;;;;;;;;;;;11.96;100.00;101213.88;5219646;28;19913;-84
2022/03/13 09:25:27;;;;;;;;;;;;;;;12.05;100.00;101202.34;5237123;28;19913;-81
2022/03/13 09:27:58;;;;;;;;;;;;;;;12.16;100.00;101204.03;5237649;28;19924;-82
2022/03/13 09:30:28;;;;;;;;;;;;;;;12.24;100.00;101210.88;5236740;28;19920;-84
2022/03/13 09:32:59;;;;;;;;;;;;;;;12.30;100.00;101211.75;5219964;28;20411;-81
2022/03/13 09:35:29;;;;;;;;;;;;;;;12.33;100.00;101219.34;5238700;28;19939;-84
2022/03/13 09:38:00;;;;;;;;;;;;;;;12.46;100.00;101224.31;5222745;28;19917;-84
2022/03/13 09:40:33;;;;;;;;;;;;;;;12.59;100.00;101207.63;5238203;28;19913;-83
2022/03/13 09:43:05;;;;;;;;;;;;;;;12.72;100.00;101206.31;5238511;28;19913;-82
2022/03/13 09:45:35;;;;;;;;;;;;;;;12.82;100.00;101212.63;5220536;28;19913;-84
2022/03/13 09:48:08;;;;;;;;;;;;;;;12.95;100.00;101200.53;5238767;28;19982;-85
2022/03/13 09:50:39;;;;;;;;;;;;;;;13.04;100.00;101200.81;5239843;28;19919;-84
2022/03/13 09:53:10;;;;;;;;;;;;;;;13.17;100.00;101190.34;5222347;28;19913;-83
2022/03/13 09:55:41;;;;;;;;;;;;;;;13.22;100.00;101203.13;5220620;28;19972;-84
2022/03/13 09:58:17;;;;;;;;;;;;;;;13.28;100.00;101195.81;5238216;28;20417;-83
2022/03/13 10:00:48;;;;;;;;;;;;;;;13.43;100.00;101185.81;5238933;28;19912;-83
2022/03/13 10:03:21;;;;;;;;;;;;;;;13.60;100.00;101195.63;5241476;28;19970;-83
2022/03/13 10:05:53;;;;;;;;;;;;;;;13.67;100.00;101199.72;5260207;28;20285;-83
2022/03/13 10:08:29;;;;;;;;;;;;;;;13.78;100.00;101187.00;5259362;28;19924;-82
2022/03/13 10:10:59;;;;;;;;;;;;;;;13.88;100.00;101192.41;5241144;28;19917;-84
2022/03/13 10:13:38;;;;;;;;;;;;;;;13.96;100.00;101182.94;5258067;28;19923;-85
2022/03/13 10:16:15;;;;;;;;;;;;;;;14.00;100.00;101184.84;5240310;28;19919;-84
2022/03/13 10:18:46;;;;;;;;;;;;;;;14.12;100.00;101177.25;5239667;28;19923;-84
2022/03/13 10:21:17;;;;;;;;;;;;;;;14.26;100.00;101172.06;5239205;28;19912;-84
2022/03/13 10:23:47;;;;;;;;;;;;;;;14.39;100.00;101173.44;5256066;28;19919;-85
2022/03/13 10:26:18;;;;;;;;;;;;;;;14.44;100.00;101184.28;5256203;28;19912;-84
2022/03/13 10:28:48;;;;;;;;;;;;;;;14.58;100.00;101179.13;5238723;28;19916;-84
2022/03/13 10:31:19;;;;;;;;;;;;;;;14.61;100.00;101182.09;5238574;28;19916;-81
2022/03/13 10:33:55;;;;;;;;;;;;;;;14.71;100.00;101179.38;5238047;28;19923;-85
2022/03/13 10:36:31;;;;;;;;;;;;;;;14.61;100.00;101173.13;5256917;28;19919;-82
2022/03/13 10:39:09;;;;;;;;;;;;;;;14.61;100.00;101167.72;5239138;28;19919;-84
2022/03/13 10:41:47;;;;;;;;;;;;;;;14.80;100.00;101172.25;5256166;28;20383;-84
2022/03/13 10:44:21;;;;;;;;;;;;;;;15.06;100.00;101170.28;5255330;28;19919;-83
2022/03/13 10:46:53;;;;;;;;;;;;;;;15.01;100.00;101164.06;5257830;28;20382;-83
2022/03/13 10:49:44;;;;;;;;;;;;;;;15.09;100.00;101164.28;5241849;22;19940;-62
2022/03/13 10:52:29;;;;;;;;;;;;;;;15.03;100.00;101108.25;5185138;28;19926;-62
2022/03/13 10:55:18;;;;;;;;;;;;;;;15.56;100.00;101157.56;5184664;28;19968;-59
2022/03/13 10:57:49;;;;;;;;;;;;;;;15.52;100.00;101157.25;5185501;28;19913;-60
2022/03/13 11:00:21;;;;;;;;;;;;;;;15.41;100.00;101158.41;5185424;28;19913;-60
2022/03/13 11:02:52;;;;;;;;;;;;;;;15.57;100.00;101159.19;5185349;28;19993;-62
2022/03/13 11:05:22;;;;;;;;;;;;;;;15.66;99.02;101151.19;5184639;28;20393;-60
2022/03/13 11:07:53;;;;;;;;;;;;;;;15.77;100.00;101144.59;5185275;28;20011;-60
2022/03/13 11:10:23;;;;;;;;;;;;;;;15.75;97.74;101144.06;5185271;28;20301;-59
2022/03/13 11:12:57;;;;;;;;;;;;;;;15.94;99.46;101142.28;5185282;28;20032;-60
2022/03/13 11:15:29;;;;;;;;;;;;;;;15.98;95.93;101140.63;5184702;28;19913;-62
2022/03/13 11:17:59;;;;;;;;;;;;;;;15.91;96.71;101137.41;5185179;28;19956;-61
2022/03/13 11:20:31;;;;;;;;;;;;;;;16.08;96.27;101134.28;5186706;28;20002;-62
2022/03/13 11:23:01;;;;;;;;;;;;;;;16.10;95.22;101135.63;5185063;28;19913;-61
2022/03/13 11:25:31;;;;;;;;;;;;;;;16.05;94.12;101132.94;5185481;28;19913;-63
2022/03/13 11:28:03;;;;;;;;;;;;;;;15.99;94.51;101141.44;5185423;28;19917;-61
2022/03/13 11:30:36;;;;;;;;;;;;;;;16.06;93.69;101131.84;5184691;28;19913;-61
2022/03/13 11:33:07;;;;;;;;;;;;;;;15.95;92.05;101122.13;5184865;28;20004;-61
2022/03/13 11:35:39;;;;;;;;;;;;;;;15.96;93.79;101131.91;5184690;28;19913;-61
2022/03/13 11:38:17;;;;;;;;;;;;;;;16.08;93.98;101126.91;5184629;28;20013;-62
2022/03/13 11:40:48;;;;;;;;;;;;;;;16.36;92.31;101129.94;5185941;28;19929;-62
2022/03/13 11:43:19;;;;;;;;;;;;;;;16.45;94.28;101128.19;5184443;28;20009;-61
2022/03/13 11:45:54;;;;;;;;;;;;;;;16.51;91.09;101125.13;5184744;28;19921;-61
2022/03/13 11:48:24;;;;;;;;;;;;;;;16.46;90.67;101132.53;5194744;28;19921;-61
2022/03/13 11:50:58;;;;;;;;;;;;;;;16.55;89.90;101117.97;5188057;28;20345;-62
2022/03/13 11:53:29;;;;;;;;;;;;;;;16.54;86.58;101115.53;5188004;28;19917;-62
2022/03/13 11:56:00;;;;;;;;;;;;;;;16.33;86.10;101117.69;5206378;28;19913;-62
2022/03/13 11:58:45;;;;;;;;;;;;;;;16.14;88.32;101128.50;5188381;28;19920;-62
2022/03/13 12:01:20;;;;;;;;;;;;;;;16.15;87.67;101118.41;5188368;28;19917;-61
2022/03/13 12:04:14;;;;;;;;;;;;;;;16.28;86.31;101125.09;5189542;28;19967;-61
2022/03/13 12:06:49;;;;;;;;;;;;;;;16.41;88.56;101118.97;5184517;28;20331;-62
2022/03/13 12:09:39;;;;;;;;;;;;;;;16.54;87.44;101121.00;5190376;28;19924;-60
2022/03/13 12:12:12;;;;;;;;;;;;;;;16.51;86.71;101116.13;5206194;28;20305;-61
2022/03/13 12:14:50;;;;;;;;;;;;;;;16.54;88.85;101115.53;5187394;28;19913;-61
2022/03/13 12:17:23;;;;;;;;;;;;;;;16.73;88.32;101118.38;5187370;28;19917;-61
2022/03/13 12:19:55;;;;;;;;;;;;;;;16.60;82.34;101121.75;5195644;28;20007;-62
2022/03/13 12:22:28;;;;;;;;;;;;;;;16.60;82.68;101119.03;5210110;28;19917;-60
2022/03/13 12:25:02;;;;;;;;;;;;;;;16.80;85.17;101111.44;5193642;28;20007;-63
2022/03/13 12:27:51;;;;;;;;;;;;;;;16.77;82.63;101125.66;5211601;28;19963;-61
2022/03/13 12:30:24;;;;;;;;;;;;;;;16.85;85.11;101124.22;5227882;28;19943;-63
2022/03/13 12:36:03;;;;;;;;;;;;;;;16.73;83.50;101113.75;5227121;28;19919;-63
2022/03/13 12:38:34;;;;;;;;;;;;;;;16.72;83.65;101114.03;5203967;28;19913;-61
2022/03/13 12:41:09;;;;;;;;;;;;;;;16.81;84.15;101113.06;5187689;28;19936;-61
2022/03/13 12:43:47;;;;;;;;;;;;;;;16.71;81.17;101109.69;5205234;28;19935;-63
2022/03/13 12:46:32;;;;;;;;;;;;;;;16.82;84.70;101114.69;5205660;28;19940;-60
2022/03/13 12:49:04;;;;;;;;;;;;;;;17.08;84.03;101106.19;5186661;28;19921;-63
2022/03/13 12:51:41;;;;;;;;;;;;;;;17.24;82.15;101104.88;5204825;28;19913;-60
2022/03/13 12:57:22;;;;;;;;;;;;;;;16.92;81.92;101105.59;5205941;28;20303;-63
2022/03/13 12:59:52;;;;;;;;;;;;;;;16.87;80.66;101106.47;5188450;28;20003;-63
2022/03/13 13:02:26;;;;;;;;;;;;;;;16.91;79.87;101105.88;5188607;28;20043;-61
2022/03/13 13:05:04;;;;;;;;;;;;;;;16.88;82.41;101105.34;5188224;28;20265;-61
2022/03/13 13:07:48;;;;;;;;;;;;;;;17.12;82.06;101104.50;5205456;28;20508;-61